sensor_id;sensor_type;location;lat;lon;timestamp;P1;durP1;ratioP1;P2;durP2;ratioP2
3689;SDS011;1861;50.240;8.596;2023-07-13T00:00:48;3.15;;;0.90;;
3689;SDS011;1861;50.240;8.596;2023-07-13T00:03:16;2.97;;;0.75;;
3689;SDS011;1861;50.240;8.596;2023-07-13T00:05:46;1.92;;;0.95;;
3689;SDS011;1861;50.240;8.596;2023-07-13T00:08:15;1.52;;;1.10;;
3689;SDS011;1861;50.240;8.596;2023-07-13T00:10:43;1.27;;;0.80;;
3689;SDS011;1861;50.240;8.596;2023-07-13T00:13:12;1.85;;;0.70;;
3689;SDS011;1861;50.240;8.596;2023-07-13T00:15:40;3.88;;;0.90;;
3689;SDS011;1861;50.240;8.596;2023-07-13T00:18:09;2.45;;;0.80;;
3689;SDS011;1861;50.240;8.596;2023-07-13T00:20:37;0.80;;;0.70;;
3689;SDS011;1861;50.240;8.596;2023-07-13T00:23:09;4.40;;;0.77;;
3689;SDS011;1861;50.240;8.596;2023-07-13T00:25:37;2.45;;;0.70;;
3689;SDS011;1861;50.240;8.596;2023-07-13T00:28:05;3.33;;;0.68;;
3689;SDS011;1861;50.240;8.596;2023-07-13T00:30:33;1.25;;;0.70;;
3689;SDS011;1861;50.240;8.596;2023-07-13T00:33:01;6.65;;;1.00;;
3689;SDS011;1861;50.240;8.596;2023-07-13T00:35:43;1.98;;;0.90;;
3689;SDS011;1861;50.240;8.596;2023-07-13T00:38:13;1.35;;;1.08;;
3689;SDS011;1861;50.240;8.596;2023-07-13T00:40:41;3.22;;;0.90;;
3689;SDS011;1861;50.240;8.596;2023-07-13T00:43:11;1.80;;;0.73;;
3689;SDS011;1861;50.240;8.596;2023-07-13T00:48:41;1.52;;;0.70;;
3689;SDS011;1861;50.240;8.596;2023-07-13T00:51:12;3.30;;;1.10;;
3689;SDS011;1861;50.240;8.596;2023-07-13T00:53:42;6.05;;;1.10;;
3689;SDS011;1861;50.240;8.596;2023-07-13T00:56:11;1.30;;;0.90;;
3689;SDS011;1861;50.240;8.596;2023-07-13T00:58:40;0.77;;;0.70;;
3689;SDS011;1861;50.240;8.596;2023-07-13T01:01:08;5.03;;;0.88;;
3689;SDS011;1861;50.240;8.596;2023-07-13T01:03:36;1.55;;;1.02;;
3689;SDS011;1861;50.240;8.596;2023-07-13T01:06:07;1.95;;;1.10;;
3689;SDS011;1861;50.240;8.596;2023-07-13T01:08:36;1.33;;;0.90;;
3689;SDS011;1861;50.240;8.596;2023-07-13T01:11:07;7.38;;;0.98;;
3689;SDS011;1861;50.240;8.596;2023-07-13T01:13:35;2.45;;;0.80;;
3689;SDS011;1861;50.240;8.596;2023-07-13T01:16:05;3.35;;;0.80;;
3689;SDS011;1861;50.240;8.596;2023-07-13T01:18:41;2.92;;;0.80;;
3689;SDS011;1861;50.240;8.596;2023-07-13T01:21:10;2.05;;;0.80;;
3689;SDS011;1861;50.240;8.596;2023-07-13T01:23:39;0.80;;;0.80;;
3689;SDS011;1861;50.240;8.596;2023-07-13T01:26:07;2.63;;;0.60;;
3689;SDS011;1861;50.240;8.596;2023-07-13T01:28:36;6.65;;;0.95;;
3689;SDS011;1861;50.240;8.596;2023-07-13T01:31:07;1.73;;;0.93;;
3689;SDS011;1861;50.240;8.596;2023-07-13T01:33:36;1.27;;;0.80;;
3689;SDS011;1861;50.240;8.596;2023-07-13T01:36:05;5.90;;;0.90;;
3689;SDS011;1861;50.240;8.596;2023-07-13T01:38:37;3.80;;;0.80;;
3689;SDS011;1861;50.240;8.596;2023-07-13T01:41:08;3.47;;;1.08;;
3689;SDS011;1861;50.240;8.596;2023-07-13T01:43:36;4.82;;;1.10;;
3689;SDS011;1861;50.240;8.596;2023-07-13T01:46:06;4.00;;;1.15;;
3689;SDS011;1861;50.240;8.596;2023-07-13T01:48:49;1.70;;;0.70;;
3689;SDS011;1861;50.240;8.596;2023-07-13T01:51:18;4.82;;;0.80;;
3689;SDS011;1861;50.240;8.596;2023-07-13T01:53:48;2.38;;;0.90;;
3689;SDS011;1861;50.240;8.596;2023-07-13T01:56:17;1.77;;;0.70;;
3689;SDS011;1861;50.240;8.596;2023-07-13T01:58:45;1.52;;;0.70;;
3689;SDS011;1861;50.240;8.596;2023-07-13T02:01:13;2.05;;;0.90;;
3689;SDS011;1861;50.240;8.596;2023-07-13T02:03:42;4.00;;;0.90;;
3689;SDS011;1861;50.240;8.596;2023-07-13T02:06:10;3.25;;;1.00;;
3689;SDS011;1861;50.240;8.596;2023-07-13T02:08:40;2.42;;;0.70;;
3689;SDS011;1861;50.240;8.596;2023-07-13T02:11:10;8.23;;;1.15;;
3689;SDS011;1861;50.240;8.596;2023-07-13T02:13:38;1.00;;;0.70;;
3689;SDS011;1861;50.240;8.596;2023-07-13T02:16:06;2.17;;;0.90;;
3689;SDS011;1861;50.240;8.596;2023-07-13T02:18:35;1.00;;;0.77;;
3689;SDS011;1861;50.240;8.596;2023-07-13T02:21:03;1.73;;;1.00;;
3689;SDS011;1861;50.240;8.596;2023-07-13T02:23:31;1.42;;;0.90;;
3689;SDS011;1861;50.240;8.596;2023-07-13T02:26:00;3.00;;;0.80;;
3689;SDS011;1861;50.240;8.596;2023-07-13T02:28:31;1.02;;;0.82;;
3689;SDS011;1861;50.240;8.596;2023-07-13T02:31:04;1.13;;;0.80;;
3689;SDS011;1861;50.240;8.596;2023-07-13T02:33:33;4.97;;;1.10;;
3689;SDS011;1861;50.240;8.596;2023-07-13T02:36:01;6.80;;;0.65;;
3689;SDS011;1861;50.240;8.596;2023-07-13T02:38:31;1.20;;;0.80;;
3689;SDS011;1861;50.240;8.596;2023-07-13T02:41:01;1.98;;;0.80;;
3689;SDS011;1861;50.240;8.596;2023-07-13T02:43:31;1.80;;;0.90;;
3689;SDS011;1861;50.240;8.596;2023-07-13T02:46:00;0.80;;;0.70;;
3689;SDS011;1861;50.240;8.596;2023-07-13T02:48:35;1.65;;;0.73;;
3689;SDS011;1861;50.240;8.596;2023-07-13T02:51:04;4.90;;;0.80;;
3689;SDS011;1861;50.240;8.596;2023-07-13T02:53:32;1.52;;;0.90;;
3689;SDS011;1861;50.240;8.596;2023-07-13T02:56:01;4.45;;;1.00;;
3689;SDS011;1861;50.240;8.596;2023-07-13T02:58:31;9.00;;;0.80;;
3689;SDS011;1861;50.240;8.596;2023-07-13T03:01:05;1.60;;;0.70;;
3689;SDS011;1861;50.240;8.596;2023-07-13T03:03:34;2.47;;;1.00;;
3689;SDS011;1861;50.240;8.596;2023-07-13T03:06:04;1.52;;;0.70;;
3689;SDS011;1861;50.240;8.596;2023-07-13T03:08:43;0.80;;;0.68;;
3689;SDS011;1861;50.240;8.596;2023-07-13T03:11:14;1.88;;;0.70;;
3689;SDS011;1861;50.240;8.596;2023-07-13T03:13:48;0.80;;;0.80;;
3689;SDS011;1861;50.240;8.596;2023-07-13T03:16:18;2.95;;;0.70;;
3689;SDS011;1861;50.240;8.596;2023-07-13T03:18:48;1.52;;;0.90;;
3689;SDS011;1861;50.240;8.596;2023-07-13T03:21:17;2.35;;;0.73;;
3689;SDS011;1861;50.240;8.596;2023-07-13T03:23:45;1.63;;;0.75;;
3689;SDS011;1861;50.240;8.596;2023-07-13T03:26:15;2.78;;;0.80;;
3689;SDS011;1861;50.240;8.596;2023-07-13T03:28:45;0.98;;;0.73;;
3689;SDS011;1861;50.240;8.596;2023-07-13T03:31:19;3.28;;;1.10;;
3689;SDS011;1861;50.240;8.596;2023-07-13T03:33:49;2.35;;;0.85;;
3689;SDS011;1861;50.240;8.596;2023-07-13T03:36:19;1.42;;;0.80;;
3689;SDS011;1861;50.240;8.596;2023-07-13T03:38:51;3.80;;;0.90;;
3689;SDS011;1861;50.240;8.596;2023-07-13T03:41:24;1.25;;;0.80;;
3689;SDS011;1861;50.240;8.596;2023-07-13T03:43:54;7.88;;;1.20;;
3689;SDS011;1861;50.240;8.596;2023-07-13T03:46:25;0.73;;;0.63;;
3689;SDS011;1861;50.240;8.596;2023-07-13T03:48:53;1.40;;;0.80;;
3689;SDS011;1861;50.240;8.596;2023-07-13T03:51:21;2.13;;;0.90;;
3689;SDS011;1861;50.240;8.596;2023-07-13T03:53:50;1.67;;;0.80;;
3689;SDS011;1861;50.240;8.596;2023-07-13T03:56:19;2.00;;;0.70;;
3689;SDS011;1861;50.240;8.596;2023-07-13T03:58:48;4.70;;;1.08;;
3689;SDS011;1861;50.240;8.596;2023-07-13T04:01:19;1.90;;;1.08;;
3689;SDS011;1861;50.240;8.596;2023-07-13T04:03:50;1.15;;;1.05;;
3689;SDS011;1861;50.240;8.596;2023-07-13T04:06:22;1.55;;;0.90;;
3689;SDS011;1861;50.240;8.596;2023-07-13T04:08:56;2.58;;;1.05;;
3689;SDS011;1861;50.240;8.596;2023-07-13T04:11:26;2.90;;;0.77;;
3689;SDS011;1861;50.240;8.596;2023-07-13T04:13:55;1.13;;;0.70;;
3689;SDS011;1861;50.240;8.596;2023-07-13T04:16:24;4.35;;;0.90;;
3689;SDS011;1861;50.240;8.596;2023-07-13T04:18:54;1.75;;;0.95;;
3689;SDS011;1861;50.240;8.596;2023-07-13T04:21:26;2.05;;;0.80;;
3689;SDS011;1861;50.240;8.596;2023-07-13T04:23:55;1.73;;;0.85;;
3689;SDS011;1861;50.240;8.596;2023-07-13T04:26:24;1.55;;;1.00;;
3689;SDS011;1861;50.240;8.596;2023-07-13T04:28:52;3.63;;;0.82;;
3689;SDS011;1861;50.240;8.596;2023-07-13T04:31:20;3.83;;;1.08;;
3689;SDS011;1861;50.240;8.596;2023-07-13T04:33:49;1.42;;;0.80;;
3689;SDS011;1861;50.240;8.596;2023-07-13T04:36:19;3.35;;;0.98;;
3689;SDS011;1861;50.240;8.596;2023-07-13T04:38:47;2.55;;;0.85;;
3689;SDS011;1861;50.240;8.596;2023-07-13T04:41:16;1.80;;;1.10;;
3689;SDS011;1861;50.240;8.596;2023-07-13T04:43:44;1.65;;;0.93;;
3689;SDS011;1861;50.240;8.596;2023-07-13T04:46:13;1.65;;;0.80;;
3689;SDS011;1861;50.240;8.596;2023-07-13T04:48:44;1.27;;;0.80;;
3689;SDS011;1861;50.240;8.596;2023-07-13T04:51:12;1.10;;;0.95;;
3689;SDS011;1861;50.240;8.596;2023-07-13T04:53:41;5.28;;;0.90;;
3689;SDS011;1861;50.240;8.596;2023-07-13T04:56:10;1.58;;;0.82;;
3689;SDS011;1861;50.240;8.596;2023-07-13T04:58:39;1.52;;;0.80;;
3689;SDS011;1861;50.240;8.596;2023-07-13T05:01:07;4.75;;;1.25;;
3689;SDS011;1861;50.240;8.596;2023-07-13T05:03:37;2.55;;;0.80;;
3689;SDS011;1861;50.240;8.596;2023-07-13T05:06:06;1.65;;;1.00;;
3689;SDS011;1861;50.240;8.596;2023-07-13T05:08:37;0.80;;;0.60;;
3689;SDS011;1861;50.240;8.596;2023-07-13T05:11:06;2.25;;;0.88;;
3689;SDS011;1861;50.240;8.596;2023-07-13T05:13:35;1.65;;;0.90;;
3689;SDS011;1861;50.240;8.596;2023-07-13T05:16:03;1.50;;;0.70;;
3689;SDS011;1861;50.240;8.596;2023-07-13T05:18:34;1.17;;;0.95;;
3689;SDS011;1861;50.240;8.596;2023-07-13T05:21:08;2.90;;;0.90;;
3689;SDS011;1861;50.240;8.596;2023-07-13T05:23:38;2.05;;;0.70;;
3689;SDS011;1861;50.240;8.596;2023-07-13T05:26:09;4.25;;;1.08;;
3689;SDS011;1861;50.240;8.596;2023-07-13T05:28:38;1.83;;;0.90;;
3689;SDS011;1861;50.240;8.596;2023-07-13T05:33:59;2.88;;;0.80;;
3689;SDS011;1861;50.240;8.596;2023-07-13T05:36:27;3.17;;;0.80;;
3689;SDS011;1861;50.240;8.596;2023-07-13T05:38:55;1.90;;;0.60;;
3689;SDS011;1861;50.240;8.596;2023-07-13T05:41:25;1.55;;;0.60;;
3689;SDS011;1861;50.240;8.596;2023-07-13T05:43:53;1.25;;;0.80;;
3689;SDS011;1861;50.240;8.596;2023-07-13T05:46:21;2.45;;;0.75;;
3689;SDS011;1861;50.240;8.596;2023-07-13T05:48:49;3.53;;;0.70;;
3689;SDS011;1861;50.240;8.596;2023-07-13T05:51:18;2.40;;;0.70;;
3689;SDS011;1861;50.240;8.596;2023-07-13T05:53:46;1.50;;;0.70;;
3689;SDS011;1861;50.240;8.596;2023-07-13T05:56:14;3.92;;;0.63;;
3689;SDS011;1861;50.240;8.596;2023-07-13T05:58:43;1.33;;;0.75;;
3689;SDS011;1861;50.240;8.596;2023-07-13T06:01:12;3.30;;;1.70;;
3689;SDS011;1861;50.240;8.596;2023-07-13T06:03:42;0.80;;;0.70;;
3689;SDS011;1861;50.240;8.596;2023-07-13T06:06:10;5.50;;;0.82;;
3689;SDS011;1861;50.240;8.596;2023-07-13T06:08:39;1.17;;;0.73;;
3689;SDS011;1861;50.240;8.596;2023-07-13T06:11:09;1.30;;;0.80;;
3689;SDS011;1861;50.240;8.596;2023-07-13T06:13:44;1.17;;;0.60;;
3689;SDS011;1861;50.240;8.596;2023-07-13T06:16:13;1.42;;;0.65;;
3689;SDS011;1861;50.240;8.596;2023-07-13T06:18:42;1.50;;;0.70;;
3689;SDS011;1861;50.240;8.596;2023-07-13T06:21:11;3.22;;;0.80;;
3689;SDS011;1861;50.240;8.596;2023-07-13T06:23:41;1.23;;;0.68;;
3689;SDS011;1861;50.240;8.596;2023-07-13T06:26:09;2.15;;;0.57;;
3689;SDS011;1861;50.240;8.596;2023-07-13T06:28:38;4.72;;;0.70;;
3689;SDS011;1861;50.240;8.596;2023-07-13T06:31:08;1.73;;;0.70;;
3689;SDS011;1861;50.240;8.596;2023-07-13T06:33:38;1.05;;;0.65;;
3689;SDS011;1861;50.240;8.596;2023-07-13T06:36:07;0.98;;;0.50;;
3689;SDS011;1861;50.240;8.596;2023-07-13T06:38:36;0.90;;;0.77;;
3689;SDS011;1861;50.240;8.596;2023-07-13T06:41:05;0.70;;;0.60;;
3689;SDS011;1861;50.240;8.596;2023-07-13T06:43:35;1.15;;;0.80;;
3689;SDS011;1861;50.240;8.596;2023-07-13T06:46:03;1.30;;;0.70;;
3689;SDS011;1861;50.240;8.596;2023-07-13T06:48:32;1.80;;;0.60;;
3689;SDS011;1861;50.240;8.596;2023-07-13T06:51:01;2.70;;;0.60;;
3689;SDS011;1861;50.240;8.596;2023-07-13T06:53:30;1.08;;;0.60;;
3689;SDS011;1861;50.240;8.596;2023-07-13T06:55:58;2.08;;;0.80;;
3689;SDS011;1861;50.240;8.596;2023-07-13T06:58:26;1.13;;;0.60;;
3689;SDS011;1861;50.240;8.596;2023-07-13T07:00:55;0.77;;;0.65;;
3689;SDS011;1861;50.240;8.596;2023-07-13T07:03:23;1.98;;;0.80;;
3689;SDS011;1861;50.240;8.596;2023-07-13T07:05:53;0.88;;;0.60;;
3689;SDS011;1861;50.240;8.596;2023-07-13T07:08:21;1.90;;;0.70;;
3689;SDS011;1861;50.240;8.596;2023-07-13T07:10:49;4.35;;;0.70;;
3689;SDS011;1861;50.240;8.596;2023-07-13T07:13:20;0.70;;;0.60;;
3689;SDS011;1861;50.240;8.596;2023-07-13T07:15:49;1.48;;;0.60;;
3689;SDS011;1861;50.240;8.596;2023-07-13T07:18:18;2.58;;;0.60;;
3689;SDS011;1861;50.240;8.596;2023-07-13T07:20:46;0.80;;;0.50;;
3689;SDS011;1861;50.240;8.596;2023-07-13T07:23:17;0.90;;;0.50;;
3689;SDS011;1861;50.240;8.596;2023-07-13T07:25:46;3.97;;;0.80;;
3689;SDS011;1861;50.240;8.596;2023-07-13T07:28:15;0.70;;;0.70;;
3689;SDS011;1861;50.240;8.596;2023-07-13T07:30:47;0.70;;;0.50;;
3689;SDS011;1861;50.240;8.596;2023-07-13T07:33:19;0.95;;;0.70;;
3689;SDS011;1861;50.240;8.596;2023-07-13T07:35:47;2.33;;;0.73;;
3689;SDS011;1861;50.240;8.596;2023-07-13T07:38:20;2.55;;;0.60;;
3689;SDS011;1861;50.240;8.596;2023-07-13T07:40:50;0.70;;;0.60;;
3689;SDS011;1861;50.240;8.596;2023-07-13T07:43:21;5.65;;;0.70;;
3689;SDS011;1861;50.240;8.596;2023-07-13T07:45:50;1.40;;;0.90;;
3689;SDS011;1861;50.240;8.596;2023-07-13T07:48:18;2.35;;;0.60;;
3689;SDS011;1861;50.240;8.596;2023-07-13T07:50:46;3.80;;;0.70;;
3689;SDS011;1861;50.240;8.596;2023-07-13T07:53:14;0.80;;;0.60;;
3689;SDS011;1861;50.240;8.596;2023-07-13T07:55:44;2.40;;;0.73;;
3689;SDS011;1861;50.240;8.596;2023-07-13T07:58:15;1.27;;;0.70;;
3689;SDS011;1861;50.240;8.596;2023-07-13T08:01:03;1.15;;;0.50;;
3689;SDS011;1861;50.240;8.596;2023-07-13T08:03:35;0.88;;;0.68;;
3689;SDS011;1861;50.240;8.596;2023-07-13T08:06:06;0.55;;;0.50;;
3689;SDS011;1861;50.240;8.596;2023-07-13T08:08:38;0.80;;;0.63;;
3689;SDS011;1861;50.240;8.596;2023-07-13T08:11:08;1.90;;;0.75;;
3689;SDS011;1861;50.240;8.596;2023-07-13T08:13:40;0.60;;;0.50;;
3689;SDS011;1861;50.240;8.596;2023-07-13T08:16:08;0.85;;;0.60;;
3689;SDS011;1861;50.240;8.596;2023-07-13T08:18:38;1.10;;;0.60;;
3689;SDS011;1861;50.240;8.596;2023-07-13T08:21:06;0.98;;;0.70;;
3689;SDS011;1861;50.240;8.596;2023-07-13T08:23:36;0.70;;;0.60;;
3689;SDS011;1861;50.240;8.596;2023-07-13T08:26:05;0.70;;;0.70;;
3689;SDS011;1861;50.240;8.596;2023-07-13T08:28:34;1.73;;;0.70;;
3689;SDS011;1861;50.240;8.596;2023-07-13T08:31:03;2.90;;;0.60;;
3689;SDS011;1861;50.240;8.596;2023-07-13T08:33:33;0.77;;;0.60;;
3689;SDS011;1861;50.240;8.596;2023-07-13T08:36:02;0.70;;;0.60;;
3689;SDS011;1861;50.240;8.596;2023-07-13T08:38:31;3.00;;;0.70;;
3689;SDS011;1861;50.240;8.596;2023-07-13T08:41:00;2.45;;;0.60;;
3689;SDS011;1861;50.240;8.596;2023-07-13T08:43:39;0.60;;;0.50;;
3689;SDS011;1861;50.240;8.596;2023-07-13T08:46:12;1.38;;;0.70;;
3689;SDS011;1861;50.240;8.596;2023-07-13T08:48:44;1.58;;;0.60;;
3689;SDS011;1861;50.240;8.596;2023-07-13T08:51:21;0.77;;;0.60;;
3689;SDS011;1861;50.240;8.596;2023-07-13T08:53:59;0.70;;;0.60;;
3689;SDS011;1861;50.240;8.596;2023-07-13T08:56:30;2.05;;;0.60;;
3689;SDS011;1861;50.240;8.596;2023-07-13T08:59:03;1.05;;;0.60;;
3689;SDS011;1861;50.240;8.596;2023-07-13T09:01:47;1.90;;;0.55;;
3689;SDS011;1861;50.240;8.596;2023-07-13T09:04:25;1.60;;;0.70;;
3689;SDS011;1861;50.240;8.596;2023-07-13T09:06:59;1.45;;;0.73;;
3689;SDS011;1861;50.240;8.596;2023-07-13T09:09:36;0.75;;;0.60;;
3689;SDS011;1861;50.240;8.596;2023-07-13T09:12:24;0.60;;;0.50;;
3689;SDS011;1861;50.240;8.596;2023-07-13T09:15:02;0.82;;;0.60;;
3689;SDS011;1861;50.240;8.596;2023-07-13T09:17:33;0.80;;;0.65;;
3689;SDS011;1861;50.240;8.596;2023-07-13T09:20:10;0.60;;;0.50;;
3689;SDS011;1861;50.240;8.596;2023-07-13T09:22:49;1.20;;;0.70;;
3689;SDS011;1861;50.240;8.596;2023-07-13T09:25:21;0.70;;;0.52;;
3689;SDS011;1861;50.240;8.596;2023-07-13T09:27:55;1.25;;;0.70;;
3689;SDS011;1861;50.240;8.596;2023-07-13T09:30:30;0.77;;;0.50;;
3689;SDS011;1861;50.240;8.596;2023-07-13T09:33:04;0.75;;;0.60;;
3689;SDS011;1861;50.240;8.596;2023-07-13T09:35:34;1.83;;;0.60;;
3689;SDS011;1861;50.240;8.596;2023-07-13T09:38:04;5.03;;;0.80;;
3689;SDS011;1861;50.240;8.596;2023-07-13T09:40:41;0.90;;;0.57;;
3689;SDS011;1861;50.240;8.596;2023-07-13T09:43:16;0.70;;;0.60;;
3689;SDS011;1861;50.240;8.596;2023-07-13T09:45:47;0.70;;;0.60;;
3689;SDS011;1861;50.240;8.596;2023-07-13T09:48:16;0.80;;;0.60;;
3689;SDS011;1861;50.240;8.596;2023-07-13T09:50:46;1.27;;;0.50;;
3689;SDS011;1861;50.240;8.596;2023-07-13T09:53:14;0.80;;;0.60;;
3689;SDS011;1861;50.240;8.596;2023-07-13T09:55:44;1.00;;;0.93;;
3689;SDS011;1861;50.240;8.596;2023-07-13T09:58:19;0.80;;;0.70;;
3689;SDS011;1861;50.240;8.596;2023-07-13T10:00:57;0.85;;;0.77;;
3689;SDS011;1861;50.240;8.596;2023-07-13T10:03:27;0.80;;;0.70;;
3689;SDS011;1861;50.240;8.596;2023-07-13T10:06:01;1.17;;;0.50;;
3689;SDS011;1861;50.240;8.596;2023-07-13T10:08:38;0.90;;;0.80;;
3689;SDS011;1861;50.240;8.596;2023-07-13T10:11:09;1.10;;;0.70;;
3689;SDS011;1861;50.240;8.596;2023-07-13T10:13:40;1.65;;;1.10;;
3689;SDS011;1861;50.240;8.596;2023-07-13T10:16:12;2.67;;;1.27;;
3689;SDS011;1861;50.240;8.596;2023-07-13T10:18:42;1.83;;;1.00;;
3689;SDS011;1861;50.240;8.596;2023-07-13T10:21:15;1.17;;;0.70;;
3689;SDS011;1861;50.240;8.596;2023-07-13T10:23:49;2.50;;;0.85;;
3689;SDS011;1861;50.240;8.596;2023-07-13T10:26:22;1.65;;;1.00;;
3689;SDS011;1861;50.240;8.596;2023-07-13T10:28:54;1.25;;;0.70;;
3689;SDS011;1861;50.240;8.596;2023-07-13T10:31:26;1.30;;;0.85;;
3689;SDS011;1861;50.240;8.596;2023-07-13T10:33:54;2.60;;;1.15;;
3689;SDS011;1861;50.240;8.596;2023-07-13T10:36:31;2.45;;;1.25;;
3689;SDS011;1861;50.240;8.596;2023-07-13T10:39:04;3.47;;;1.42;;
3689;SDS011;1861;50.240;8.596;2023-07-13T10:41:34;4.20;;;1.60;;
3689;SDS011;1861;50.240;8.596;2023-07-13T10:44:06;2.22;;;1.38;;
3689;SDS011;1861;50.240;8.596;2023-07-13T10:46:43;2.05;;;1.20;;
3689;SDS011;1861;50.240;8.596;2023-07-13T10:49:12;3.40;;;2.13;;
3689;SDS011;1861;50.240;8.596;2023-07-13T10:51:41;2.30;;;1.58;;
3689;SDS011;1861;50.240;8.596;2023-07-13T10:54:19;3.22;;;1.48;;
3689;SDS011;1861;50.240;8.596;2023-07-13T10:56:50;3.08;;;1.58;;
3689;SDS011;1861;50.240;8.596;2023-07-13T10:59:24;5.68;;;1.73;;
3689;SDS011;1861;50.240;8.596;2023-07-13T11:01:57;2.33;;;1.40;;
3689;SDS011;1861;50.240;8.596;2023-07-13T11:04:39;1.90;;;1.20;;
3689;SDS011;1861;50.240;8.596;2023-07-13T11:07:11;2.65;;;1.55;;
3689;SDS011;1861;50.240;8.596;2023-07-13T11:09:49;3.70;;;2.20;;
3689;SDS011;1861;50.240;8.596;2023-07-13T11:15:31;3.35;;;1.15;;
3689;SDS011;1861;50.240;8.596;2023-07-13T11:18:21;2.30;;;1.60;;
3689;SDS011;1861;50.240;8.596;2023-07-13T11:20:51;6.80;;;2.38;;
3689;SDS011;1861;50.240;8.596;2023-07-13T11:24:02;7.05;;;2.50;;
3689;SDS011;1861;50.240;8.596;2023-07-13T11:26:37;6.03;;;2.83;;
3689;SDS011;1861;50.240;8.596;2023-07-13T11:29:08;5.10;;;2.55;;
3689;SDS011;1861;50.240;8.596;2023-07-13T11:31:51;8.55;;;3.20;;
3689;SDS011;1861;50.240;8.596;2023-07-13T11:34:24;6.28;;;2.65;;
3689;SDS011;1861;50.240;8.596;2023-07-13T11:36:57;7.97;;;2.67;;
3689;SDS011;1861;50.240;8.596;2023-07-13T11:39:28;2.58;;;1.20;;
3689;SDS011;1861;50.240;8.596;2023-07-13T11:41:59;6.25;;;3.00;;
3689;SDS011;1861;50.240;8.596;2023-07-13T11:44:30;8.13;;;3.25;;
3689;SDS011;1861;50.240;8.596;2023-07-13T11:47:10;7.00;;;3.40;;
3689;SDS011;1861;50.240;8.596;2023-07-13T11:49:48;5.00;;;2.70;;
3689;SDS011;1861;50.240;8.596;2023-07-13T11:52:20;6.03;;;3.00;;
3689;SDS011;1861;50.240;8.596;2023-07-13T11:54:51;5.03;;;3.00;;
3689;SDS011;1861;50.240;8.596;2023-07-13T11:57:23;8.63;;;3.08;;
3689;SDS011;1861;50.240;8.596;2023-07-13T11:59:55;7.45;;;3.22;;
3689;SDS011;1861;50.240;8.596;2023-07-13T12:02:25;8.00;;;3.80;;
3689;SDS011;1861;50.240;8.596;2023-07-13T12:04:58;4.43;;;2.58;;
3689;SDS011;1861;50.240;8.596;2023-07-13T12:07:29;5.93;;;2.60;;
3689;SDS011;1861;50.240;8.596;2023-07-13T12:10:00;5.32;;;2.75;;
3689;SDS011;1861;50.240;8.596;2023-07-13T12:12:29;1.95;;;1.40;;
3689;SDS011;1861;50.240;8.596;2023-07-13T12:14:57;6.78;;;3.13;;
3689;SDS011;1861;50.240;8.596;2023-07-13T12:17:26;6.18;;;2.35;;
3689;SDS011;1861;50.240;8.596;2023-07-13T12:19:55;4.35;;;2.30;;
3689;SDS011;1861;50.240;8.596;2023-07-13T12:22:25;4.50;;;2.45;;
3689;SDS011;1861;50.240;8.596;2023-07-13T12:24:53;7.35;;;2.92;;
3689;SDS011;1861;50.240;8.596;2023-07-13T12:27:23;5.80;;;2.35;;
3689;SDS011;1861;50.240;8.596;2023-07-13T12:29:57;7.32;;;3.67;;
3689;SDS011;1861;50.240;8.596;2023-07-13T12:32:26;4.80;;;2.60;;
3689;SDS011;1861;50.240;8.596;2023-07-13T12:35:06;8.80;;;3.80;;
3689;SDS011;1861;50.240;8.596;2023-07-13T12:37:43;10.23;;;4.28;;
3689;SDS011;1861;50.240;8.596;2023-07-13T12:40:13;9.02;;;3.88;;
3689;SDS011;1861;50.240;8.596;2023-07-13T12:42:42;6.85;;;2.97;;
3689;SDS011;1861;50.240;8.596;2023-07-13T12:45:17;5.47;;;2.58;;
3689;SDS011;1861;50.240;8.596;2023-07-13T12:47:48;4.15;;;2.40;;
3689;SDS011;1861;50.240;8.596;2023-07-13T12:50:18;5.20;;;2.50;;
3689;SDS011;1861;50.240;8.596;2023-07-13T12:52:51;6.47;;;2.97;;
3689;SDS011;1861;50.240;8.596;2023-07-13T12:55:22;7.88;;;3.47;;
3689;SDS011;1861;50.240;8.596;2023-07-13T12:57:51;8.90;;;3.05;;
3689;SDS011;1861;50.240;8.596;2023-07-13T13:00:23;6.43;;;3.42;;
3689;SDS011;1861;50.240;8.596;2023-07-13T13:02:54;8.27;;;3.58;;
3689;SDS011;1861;50.240;8.596;2023-07-13T13:05:41;5.22;;;2.88;;
3689;SDS011;1861;50.240;8.596;2023-07-13T13:08:13;7.72;;;3.15;;
3689;SDS011;1861;50.240;8.596;2023-07-13T13:10:41;5.68;;;1.40;;
3689;SDS011;1861;50.240;8.596;2023-07-13T13:13:09;6.10;;;2.40;;
3689;SDS011;1861;50.240;8.596;2023-07-13T13:15:38;6.28;;;3.45;;
3689;SDS011;1861;50.240;8.596;2023-07-13T13:18:11;3.33;;;1.40;;
3689;SDS011;1861;50.240;8.596;2023-07-13T13:20:43;5.70;;;2.30;;
3689;SDS011;1861;50.240;8.596;2023-07-13T13:23:14;6.05;;;2.92;;
3689;SDS011;1861;50.240;8.596;2023-07-13T13:25:45;6.70;;;3.13;;
3689;SDS011;1861;50.240;8.596;2023-07-13T13:28:14;4.50;;;2.05;;
3689;SDS011;1861;50.240;8.596;2023-07-13T13:30:45;2.38;;;1.73;;
3689;SDS011;1861;50.240;8.596;2023-07-13T13:33:15;10.27;;;1.40;;
3689;SDS011;1861;50.240;8.596;2023-07-13T13:35:44;5.63;;;2.42;;
3689;SDS011;1861;50.240;8.596;2023-07-13T13:38:13;9.60;;;3.10;;
3689;SDS011;1861;50.240;8.596;2023-07-13T13:40:44;1.98;;;1.42;;
3689;SDS011;1861;50.240;8.596;2023-07-13T13:43:16;4.90;;;2.45;;
3689;SDS011;1861;50.240;8.596;2023-07-13T13:45:45;4.60;;;2.78;;
3689;SDS011;1861;50.240;8.596;2023-07-13T13:48:15;7.95;;;3.17;;
3689;SDS011;1861;50.240;8.596;2023-07-13T13:50:45;2.72;;;1.60;;
3689;SDS011;1861;50.240;8.596;2023-07-13T13:53:16;3.83;;;2.15;;
3689;SDS011;1861;50.240;8.596;2023-07-13T13:55:44;6.35;;;2.95;;
3689;SDS011;1861;50.240;8.596;2023-07-13T13:58:13;5.38;;;2.33;;
3689;SDS011;1861;50.240;8.596;2023-07-13T14:00:41;2.75;;;1.77;;
3689;SDS011;1861;50.240;8.596;2023-07-13T14:03:13;6.47;;;2.28;;
3689;SDS011;1861;50.240;8.596;2023-07-13T14:05:43;3.15;;;1.80;;
3689;SDS011;1861;50.240;8.596;2023-07-13T14:08:13;5.13;;;2.50;;
3689;SDS011;1861;50.240;8.596;2023-07-13T14:10:45;4.30;;;2.00;;
3689;SDS011;1861;50.240;8.596;2023-07-13T14:13:17;5.47;;;2.50;;
3689;SDS011;1861;50.240;8.596;2023-07-13T14:15:47;6.93;;;2.50;;
3689;SDS011;1861;50.240;8.596;2023-07-13T14:18:16;5.95;;;3.45;;
3689;SDS011;1861;50.240;8.596;2023-07-13T14:20:44;3.85;;;2.80;;
3689;SDS011;1861;50.240;8.596;2023-07-13T14:23:13;3.05;;;1.60;;
3689;SDS011;1861;50.240;8.596;2023-07-13T14:25:45;4.65;;;2.22;;
3689;SDS011;1861;50.240;8.596;2023-07-13T14:28:20;2.10;;;1.48;;
3689;SDS011;1861;50.240;8.596;2023-07-13T14:30:51;9.43;;;2.28;;
3689;SDS011;1861;50.240;8.596;2023-07-13T14:33:21;3.25;;;1.27;;
3689;SDS011;1861;50.240;8.596;2023-07-13T14:35:49;8.98;;;3.10;;
3689;SDS011;1861;50.240;8.596;2023-07-13T14:38:20;4.80;;;2.63;;
3689;SDS011;1861;50.240;8.596;2023-07-13T14:40:48;5.13;;;2.42;;
3689;SDS011;1861;50.240;8.596;2023-07-13T14:43:17;2.55;;;1.85;;
3689;SDS011;1861;50.240;8.596;2023-07-13T14:45:46;5.63;;;2.78;;
3689;SDS011;1861;50.240;8.596;2023-07-13T14:48:17;5.10;;;2.63;;
3689;SDS011;1861;50.240;8.596;2023-07-13T14:50:49;3.42;;;2.20;;
3689;SDS011;1861;50.240;8.596;2023-07-13T14:53:22;2.80;;;2.30;;
3689;SDS011;1861;50.240;8.596;2023-07-13T14:55:52;2.95;;;2.38;;
3689;SDS011;1861;50.240;8.596;2023-07-13T14:58:20;3.80;;;2.40;;
3689;SDS011;1861;50.240;8.596;2023-07-13T15:00:48;4.70;;;2.03;;
3689;SDS011;1861;50.240;8.596;2023-07-13T15:03:20;3.83;;;2.17;;
3689;SDS011;1861;50.240;8.596;2023-07-13T15:05:51;3.92;;;2.00;;
3689;SDS011;1861;50.240;8.596;2023-07-13T15:08:21;3.55;;;1.50;;
3689;SDS011;1861;50.240;8.596;2023-07-13T15:10:50;7.95;;;3.08;;
3689;SDS011;1861;50.240;8.596;2023-07-13T15:13:18;4.40;;;2.20;;
3689;SDS011;1861;50.240;8.596;2023-07-13T15:15:49;3.17;;;2.08;;
3689;SDS011;1861;50.240;8.596;2023-07-13T15:18:19;4.45;;;1.63;;
3689;SDS011;1861;50.240;8.596;2023-07-13T15:20:50;3.17;;;1.70;;
3689;SDS011;1861;50.240;8.596;2023-07-13T15:23:23;5.25;;;2.97;;
3689;SDS011;1861;50.240;8.596;2023-07-13T15:25:52;1.65;;;0.90;;
3689;SDS011;1861;50.240;8.596;2023-07-13T15:28:20;3.13;;;1.52;;
3689;SDS011;1861;50.240;8.596;2023-07-13T15:30:48;4.43;;;1.73;;
3689;SDS011;1861;50.240;8.596;2023-07-13T15:33:19;4.28;;;2.17;;
3689;SDS011;1861;50.240;8.596;2023-07-13T15:35:50;1.48;;;1.38;;
3689;SDS011;1861;50.240;8.596;2023-07-13T15:38:20;4.18;;;2.33;;
3689;SDS011;1861;50.240;8.596;2023-07-13T15:40:52;2.95;;;1.42;;
3689;SDS011;1861;50.240;8.596;2023-07-13T15:43:21;3.10;;;1.50;;
3689;SDS011;1861;50.240;8.596;2023-07-13T15:45:49;4.88;;;1.80;;